Time;durP1;ratioP1;P1;durP2;ratioP2;P2;SDS_P1;SDS_P2;PMS_P1;PMS_P2;Temp;Humidity;BMP_temperature;BMP_pressure;BME280_temperature;BME280_humidity;BME280_pressure;Samples;Min_cycle;Max_cycle;Signal;HPM_P1;HPM_P2
2022/05/05 04:02:16;;;;;;;28.03;25.33;;;12.20;99.90;;;;;;5175259;23;20538;-65
2022/05/05 04:04:43;;;;;;;30.07;27.27;;;12.20;99.90;;;;;;5035128;28;20452;-65
2022/05/05 04:07:10;;;;;;;29.83;27.00;;;12.20;99.90;;;;;;5034625;28;20476;-64
2022/05/05 04:09:36;;;;;;;29.33;26.20;;;12.30;99.90;;;;;;5034609;28;20452;-64
2022/05/05 04:12:04;;;;;;;29.23;26.43;;;12.30;99.90;;;;;;5035114;28;20468;-65
2022/05/05 04:14:33;;;;;;;29.73;26.83;;;12.20;99.90;;;;;;5035073;28;20452;-64
2022/05/05 04:17:00;;;;;;;27.97;25.37;;;12.20;99.90;;;;;;5035118;28;20452;-64
2022/05/05 04:19:28;;;;;;;29.43;26.70;;;12.30;99.90;;;;;;5034956;28;20452;-64
2022/05/05 04:21:55;;;;;;;30.73;27.50;;;12.30;99.90;;;;;;5035177;28;20479;-64
2022/05/05 04:24:22;;;;;;;30.20;27.37;;;12.30;99.90;;;;;;5034765;28;20809;-64
2022/05/05 04:26:49;;;;;;;30.33;27.33;;;12.30;99.90;;;;;;5035160;28;20456;-64
2022/05/05 04:29:15;;;;;;;30.27;27.33;;;12.30;99.90;;;;;;5035043;28;20529;-64
2022/05/05 04:31:43;;;;;;;29.90;26.83;;;12.30;99.90;;;;;;5034789;28;20995;-64
2022/05/05 04:34:10;;;;;;;29.27;26.47;;;12.20;99.90;;;;;;5034518;28;20463;-65
2022/05/05 04:36:38;;;;;;;28.00;25.37;;;12.30;99.90;;;;;;5034208;28;20456;-64
2022/05/05 04:39:06;;;;;;;27.73;24.93;;;12.30;99.90;;;;;;5035531;28;20531;-65
2022/05/05 04:41:33;;;;;;;27.00;24.40;;;12.30;99.90;;;;;;5034496;28;20487;-64
2022/05/05 04:44:00;;;;;;;26.47;23.97;;;12.30;99.90;;;;;;5034587;28;20462;-66
2022/05/05 04:46:27;;;;;;;27.30;24.47;;;12.40;99.90;;;;;;5034419;28;20452;-66
2022/05/05 04:48:53;;;;;;;25.30;23.10;;;12.40;99.90;;;;;;5034704;28;20452;-64
2022/05/05 04:51:20;;;;;;;24.77;22.53;;;12.40;99.90;;;;;;5034447;28;20523;-65
2022/05/05 04:53:48;;;;;;;24.23;22.03;;;12.50;99.90;;;;;;5034505;28;20452;-65
2022/05/05 04:56:15;;;;;;;23.03;20.97;;;12.50;99.90;;;;;;5033986;28;20452;-64
2022/05/05 04:58:42;;;;;;;24.20;22.07;;;12.50;99.90;;;;;;5033937;28;20456;-65
2022/05/05 05:01:08;;;;;;;24.73;22.47;;;12.40;99.90;;;;;;5033996;28;20562;-65
2022/05/05 05:03:36;;;;;;;25.10;22.90;;;12.30;99.90;;;;;;5034377;28;20455;-64
2022/05/05 05:06:03;;;;;;;24.90;22.50;;;12.30;99.90;;;;;;5034491;28;20506;-65
2022/05/05 05:08:30;;;;;;;27.80;25.30;;;12.30;99.90;;;;;;5033584;28;20448;-64
2022/05/05 05:10:58;;;;;;;25.03;22.83;;;12.30;99.90;;;;;;5033897;28;20480;-64
2022/05/05 05:13:25;;;;;;;24.03;21.77;;;12.30;99.90;;;;;;5034146;28;20452;-71
2022/05/05 05:15:52;;;;;;;25.23;22.97;;;12.40;99.90;;;;;;5034184;28;20463;-64
2022/05/05 05:18:19;;;;;;;25.40;23.03;;;12.40;99.90;;;;;;5034118;28;20820;-65
2022/05/05 05:20:46;;;;;;;27.37;24.87;;;12.40;99.90;;;;;;5033626;28;20472;-69
2022/05/05 05:23:13;;;;;;;29.00;26.37;;;12.40;99.90;;;;;;5033464;28;20456;-63
2022/05/05 05:25:40;;;;;;;28.17;25.40;;;12.50;99.90;;;;;;5033726;28;20455;-63
2022/05/05 05:28:08;;;;;;;25.07;22.83;;;12.60;99.90;;;;;;5033935;28;20456;-65
2022/05/05 05:30:35;;;;;;;27.07;24.67;;;12.70;99.90;;;;;;5033696;28;20480;-64
2022/05/05 05:33:01;;;;;;;26.83;24.33;;;12.80;99.90;;;;;;5033759;28;20444;-64
2022/05/05 05:35:28;;;;;;;29.57;24.40;;;12.90;99.90;;;;;;5033539;28;20452;-63
2022/05/05 05:37:54;;;;;;;25.53;23.20;;;13.00;99.90;;;;;;5033603;28;20452;-63
2022/05/05 05:40:21;;;;;;;23.90;21.90;;;13.10;99.90;;;;;;5033453;28;20459;-63
2022/05/05 05:42:48;;;;;;;25.17;22.80;;;13.20;99.90;;;;;;5033341;28;20491;-64
2022/05/05 05:45:16;;;;;;;25.33;23.13;;;13.30;99.90;;;;;;5034002;28;20452;-64
2022/05/05 05:47:43;;;;;;;25.63;23.33;;;13.40;99.90;;;;;;5036536;28;20455;-65
2022/05/05 05:50:10;;;;;;;25.13;22.90;;;13.40;99.90;;;;;;5037316;28;20451;-63
2022/05/05 05:52:36;;;;;;;26.00;23.30;;;13.50;99.90;;;;;;5037494;28;20436;-64
2022/05/05 05:55:04;;;;;;;27.60;25.20;;;13.50;99.90;;;;;;5037375;28;20478;-64
2022/05/05 05:57:31;;;;;;;26.53;24.20;;;13.40;99.90;;;;;;5037701;28;20451;-63
2022/05/05 05:59:58;;;;;;;23.97;21.97;;;13.50;99.90;;;;;;5037406;28;20959;-64
2022/05/05 06:05:10;;;;;;;25.10;22.90;;;13.70;99.90;;;;;;5037410;28;20419;-64
2022/05/05 06:07:36;;;;;;;25.97;23.43;;;13.80;99.90;;;;;;5037247;28;20452;-64
2022/05/05 06:10:04;;;;;;;25.03;22.90;;;13.80;99.90;;;;;;5037162;28;20441;-64
2022/05/05 06:12:31;;;;;;;28.80;25.47;;;13.80;99.90;;;;;;5037155;28;20499;-64
2022/05/05 06:14:57;;;;;;;24.80;22.70;;;13.90;99.90;;;;;;5037225;28;20816;-64
2022/05/05 06:17:26;;;;;;;23.30;21.23;;;14.00;99.90;;;;;;5043282;28;20428;-63
2022/05/05 06:19:52;;;;;;;23.03;20.83;;;14.00;99.90;;;;;;5056219;28;20450;-63
2022/05/05 06:22:19;;;;;;;22.57;20.50;;;14.10;99.90;;;;;;5037207;28;20484;-63
2022/05/05 06:24:46;;;;;;;23.67;21.63;;;14.10;99.90;;;;;;5036967;28;20793;-63
2022/05/05 06:27:12;;;;;;;20.97;19.10;;;14.10;99.90;;;;;;5036814;28;20478;-64
2022/05/05 06:29:39;;;;;;;18.80;17.20;;;14.20;99.90;;;;;;5037027;28;20456;-64
2022/05/05 06:32:07;;;;;;;15.97;14.67;;;14.30;99.90;;;;;;5036353;28;20838;-64
2022/05/05 06:34:35;;;;;;;15.80;14.50;;;14.40;99.90;;;;;;5036654;28;20441;-64
2022/05/05 06:37:01;;;;;;;15.97;14.53;;;14.50;99.90;;;;;;5036417;28;20443;-64
2022/05/05 06:39:28;;;;;;;15.40;14.17;;;14.60;99.90;;;;;;5036585;28;20440;-64
2022/05/05 06:41:56;;;;;;;15.60;14.30;;;14.50;99.90;;;;;;5036288;28;20484;-63
2022/05/05 06:44:23;;;;;;;15.80;14.60;;;14.50;99.90;;;;;;5036385;28;20447;-64
2022/05/05 06:46:50;;;;;;;16.33;14.70;;;14.50;99.90;;;;;;5036429;28;20502;-64
2022/05/05 06:49:18;;;;;;;15.47;14.27;;;14.50;99.90;;;;;;5036287;28;20456;-64
2022/05/05 06:51:46;;;;;;;15.40;14.30;;;14.60;99.90;;;;;;5036229;28;20562;-63
2022/05/05 06:54:13;;;;;;;16.60;15.10;;;14.60;99.90;;;;;;5036302;28;20460;-63
2022/05/05 06:56:39;;;;;;;15.60;14.30;;;14.60;99.90;;;;;;5036206;28;20455;-63
2022/05/05 06:59:06;;;;;;;16.23;14.73;;;14.70;99.90;;;;;;5035795;28;20459;-63
2022/05/05 07:07:03;;;;;;;15.67;14.37;;;14.70;99.90;;;;;;5036261;28;20818;-64
2022/05/05 07:12:13;;;;;;;15.80;14.50;;;14.60;99.90;;;;;;5037076;28;20475;-64
2022/05/05 07:14:40;;;;;;;14.77;13.67;;;14.60;99.90;;;;;;5036233;28;20456;-64
2022/05/05 07:17:08;;;;;;;14.97;13.87;;;14.60;99.90;;;;;;5036038;28;20959;-64
2022/05/05 07:19:35;;;;;;;15.43;14.10;;;14.60;99.90;;;;;;5035941;28;20459;-63
2022/05/05 07:22:04;;;;;;;17.20;15.60;;;14.70;99.90;;;;;;5035725;28;20486;-64
2022/05/05 07:24:31;;;;;;;16.10;14.70;;;14.70;99.90;;;;;;5035964;28;20483;-64
2022/05/05 07:26:57;;;;;;;16.60;15.30;;;14.70;99.90;;;;;;5035665;28;20840;-64
2022/05/05 07:29:24;;;;;;;16.73;15.30;;;14.70;99.90;;;;;;5036118;28;20452;-64
2022/05/05 07:31:51;;;;;;;18.07;16.60;;;14.70;99.90;;;;;;5035475;28;20522;-64
2022/05/05 07:34:18;;;;;;;15.53;14.30;;;14.70;99.90;;;;;;5035692;28;20463;-64
2022/05/05 07:36:46;;;;;;;15.90;14.70;;;14.80;99.90;;;;;;5035615;28;20459;-63
2022/05/05 07:39:14;;;;;;;16.70;15.40;;;14.80;99.90;;;;;;5035397;28;20459;-63
2022/05/05 07:41:40;;;;;;;18.90;16.70;;;14.80;99.90;;;;;;5034941;28;20987;-63
2022/05/05 07:44:07;;;;;;;16.23;15.03;;;14.90;99.90;;;;;;5035158;28;20852;-63
2022/05/05 07:46:34;;;;;;;15.73;14.33;;;15.10;99.90;;;;;;5035369;28;20877;-63
2022/05/05 07:49:01;;;;;;;15.73;14.43;;;15.20;99.90;;;;;;5034928;28;20468;-63
2022/05/05 07:51:28;;;;;;;15.67;14.37;;;15.40;99.90;;;;;;5035132;28;20472;-63
2022/05/05 07:56:37;;;;;;;17.43;16.03;;;15.70;99.90;;;;;;5034001;28;20444;-64
2022/05/05 07:59:04;;;;;;;17.50;16.10;;;15.80;99.90;;;;;;5035172;28;20448;-64
2022/05/05 08:01:30;;;;;;;17.23;15.70;;;15.90;99.90;;;;;;5034594;28;20484;-63
2022/05/05 08:03:58;;;;;;;16.70;15.10;;;15.90;99.90;;;;;;5034816;28;20482;-64
2022/05/05 08:06:24;;;;;;;17.17;15.47;;;16.00;99.90;;;;;;5034574;28;20456;-63
2022/05/05 08:08:51;;;;;;;16.00;14.50;;;16.00;99.90;;;;;;5034687;28;20455;-63
2022/05/05 08:11:18;;;;;;;16.50;15.20;;;16.00;99.90;;;;;;5034733;28;20479;-63
2022/05/05 08:13:46;;;;;;;17.67;16.07;;;16.10;99.90;;;;;;5034474;28;20994;-62
2022/05/05 08:16:13;;;;;;;17.73;16.33;;;16.30;99.90;;;;;;5035002;28;20487;-64
2022/05/05 08:18:40;;;;;;;18.00;16.47;;;16.30;99.90;;;;;;5034806;28;20456;-64
2022/05/05 08:21:06;;;;;;;17.40;15.93;;;16.30;99.90;;;;;;5034357;28;20848;-68
2022/05/05 08:23:33;;;;;;;18.37;16.60;;;16.40;99.90;;;;;;5034524;28;20541;-64
2022/05/05 08:28:45;;;;;;;20.00;18.10;;;16.40;99.90;;;;;;5034150;28;20416;-64
2022/05/05 08:31:12;;;;;;;19.97;18.23;;;16.20;99.90;;;;;;5035080;28;20484;-63
2022/05/05 08:33:39;;;;;;;20.37;18.67;;;16.10;99.90;;;;;;5034074;28;20447;-63
2022/05/05 08:36:07;;;;;;;21.67;19.87;;;16.00;99.90;;;;;;5034158;28;20543;-63
2022/05/05 08:38:34;;;;;;;22.10;20.30;;;16.00;99.90;;;;;;5034095;28;20455;-63
2022/05/05 08:41:02;;;;;;;19.63;18.13;;;15.90;99.90;;;;;;5034091;28;20472;-63
2022/05/05 08:43:29;;;;;;;20.37;18.50;;;15.90;99.90;;;;;;5034916;28;20803;-63
2022/05/05 08:45:59;;;;;;;22.27;20.37;;;15.90;99.90;;;;;;5033817;28;20444;-63
2022/05/05 08:48:27;;;;;;;22.57;20.67;;;16.00;99.90;;;;;;5034089;28;20436;-63
2022/05/05 08:50:58;;;;;;;23.90;21.83;;;16.00;99.90;;;;;;5033769;28;20476;-63
2022/05/05 08:53:29;;;;;;;23.90;21.80;;;16.00;99.90;;;;;;5033960;28;20440;-63
2022/05/05 08:55:56;;;;;;;23.70;21.80;;;16.00;99.90;;;;;;5034039;28;20456;-63
2022/05/05 08:58:23;;;;;;;23.57;21.47;;;16.10;99.90;;;;;;5034219;28;20452;-63
2022/05/05 09:00:52;;;;;;;25.20;23.00;;;16.00;99.90;;;;;;5033721;28;20541;-63
2022/05/05 09:03:21;;;;;;;23.10;20.80;;;15.90;99.90;;;;;;5034026;28;20483;-65
2022/05/05 09:05:49;;;;;;;24.03;22.00;;;15.90;99.90;;;;;;5034023;28;20460;-65
2022/05/05 09:08:28;;;;;;;24.30;22.30;;;15.90;99.90;;;;;;5034101;28;20459;-65
2022/05/05 09:10:56;;;;;;;24.33;22.23;;;15.90;99.90;;;;;;5034238;28;20511;-63
2022/05/05 09:13:24;;;;;;;24.47;22.37;;;16.00;99.90;;;;;;5034078;28;20459;-65
2022/05/05 09:15:50;;;;;;;22.33;20.53;;;16.00;99.90;;;;;;5033774;28;20458;-63
2022/05/05 09:18:21;;;;;;;24.47;21.73;;;16.10;99.90;;;;;;5033426;28;20456;-63
2022/05/05 09:20:49;;;;;;;25.57;23.27;;;16.10;99.90;;;;;;5033213;28;20479;-62
2022/05/05 09:23:28;;;;;;;23.33;21.30;;;16.10;99.90;;;;;;5033255;28;21030;-63
2022/05/05 09:25:56;;;;;;;26.23;23.93;;;16.00;99.90;;;;;;5033721;28;20440;-63
2022/05/05 09:28:23;;;;;;;24.73;22.40;;;16.10;99.90;;;;;;5033634;28;20536;-63
2022/05/05 09:30:52;;;;;;;26.43;24.03;;;16.10;99.90;;;;;;5033670;28;20879;-63
2022/05/05 09:33:41;;;;;;;26.70;23.87;;;16.00;99.90;;;;;;5033704;28;20475;-63
2022/05/05 09:36:09;;;;;;;25.43;23.07;;;16.10;99.90;;;;;;5033517;28;20440;-63
2022/05/05 09:38:50;;;;;;;27.57;22.33;;;16.10;99.90;;;;;;5033528;28;20457;-64
2022/05/05 09:41:17;;;;;;;25.87;23.37;;;16.10;99.90;;;;;;5033318;28;20479;-62
2022/05/05 09:43:43;;;;;;;28.33;26.00;;;16.20;99.90;;;;;;5033515;28;20486;-63
2022/05/05 09:46:30;;;;;;;29.40;26.70;;;16.30;99.90;;;;;;5039647;28;20455;-62
2022/05/05 09:49:11;;;;;;;31.27;28.40;;;16.40;99.90;;;;;;5049717;28;20438;-64
2022/05/05 09:51:44;;;;;;;31.83;28.53;;;16.50;99.90;;;;;;5033253;28;20511;-64
2022/05/05 09:59:48;;;;;;;28.17;25.57;;;16.70;99.90;;;;;;5033136;28;21003;-63
2022/05/05 10:04:00;;;;;;;26.00;23.87;;;16.80;99.90;;;;;;5032688;28;20479;-62
2022/05/05 10:05:09;;;;;;;24.57;22.43;;;17.00;99.90;;;;;;5032822;28;20530;-63
2022/05/05 10:07:39;;;;;;;26.53;23.70;;;17.20;99.90;;;;;;5033308;28;20505;-63
2022/05/05 10:10:08;;;;;;;25.73;23.33;;;17.30;99.90;;;;;;5032846;28;20924;-63
2022/05/05 10:12:35;;;;;;;26.27;23.97;;;17.40;99.90;;;;;;5033167;28;20496;-62
2022/05/05 10:15:02;;;;;;;26.90;24.70;;;17.40;99.90;;;;;;5033211;28;20452;-62
2022/05/05 10:17:29;;;;;;;28.10;25.70;;;17.50;99.90;;;;;;5033751;28;20527;-62
2022/05/05 10:19:56;;;;;;;27.00;24.40;;;17.60;99.90;;;;;;5032869;28;20945;-64
2022/05/05 10:22:35;;;;;;;27.60;25.30;;;17.70;99.90;;;;;;5032979;28;20475;-63
2022/05/05 10:25:09;;;;;;;24.77;22.70;;;17.80;99.90;;;;;;5033171;28;20436;-63
2022/05/05 10:27:42;;;;;;;25.90;23.80;;;17.90;99.90;;;;;;5032980;28;20432;-64
2022/05/05 10:30:14;;;;;;;25.07;22.87;;;18.00;99.90;;;;;;5033136;28;20444;-65
2022/05/05 10:32:41;;;;;;;27.50;25.00;;;18.10;99.90;;;;;;5033190;28;20436;-64
2022/05/05 10:35:21;;;;;;;25.23;23.07;;;18.10;99.90;;;;;;5036393;28;20447;-64
2022/05/05 10:37:49;;;;;;;24.03;21.80;;;18.10;99.90;;;;;;5036970;28;20439;-64
2022/05/05 10:40:16;;;;;;;29.00;26.40;;;18.10;99.90;;;;;;5036063;28;20521;-64
2022/05/05 10:42:45;;;;;;;28.20;25.60;;;18.00;99.90;;;;;;5036925;28;20488;-63
2022/05/05 10:45:16;;;;;;;28.47;25.97;;;17.90;99.90;;;;;;5036380;28;20451;-64
2022/05/05 10:48:31;;;;;;;28.83;26.10;;;18.00;99.90;;;;;;5036384;28;20456;-63
2022/05/05 10:51:06;;;;;;;27.60;25.23;;;18.10;99.90;;;;;;4936474;29;20523;-62
2022/05/05 10:53:42;;;;;;;28.00;25.30;;;18.10;99.90;;;;;;4936655;29;20451;-62
2022/05/05 10:56:29;;;;;;;26.80;24.30;;;18.10;99.90;;;;;;5002153;28;20444;-63
2022/05/05 10:59:06;;;;;;;27.93;25.37;;;18.30;99.90;;;;;;5036307;28;20454;-63
2022/05/05 11:01:58;;;;;;;27.43;25.17;;;18.50;99.90;;;;;;5036192;28;20841;-63
2022/05/05 11:04:33;;;;;;;26.73;24.60;;;18.60;99.90;;;;;;5022414;28;20515;-63
2022/05/05 11:07:37;;;;;;;26.47;24.27;;;18.70;99.90;;;;;;5035961;28;20471;-63
2022/05/05 11:10:08;;;;;;;27.87;25.43;;;18.80;99.90;;;;;;5036037;28;20472;-63
2022/05/05 11:12:38;;;;;;;27.07;24.53;;;18.90;99.90;;;;;;5035778;28;20487;-63
2022/05/05 11:23:27;;;;;;;28.87;26.40;;;19.00;99.90;;;;;;5035904;28;20455;-63
2022/05/05 11:25:55;;;;;;;29.57;26.97;;;18.90;99.90;;;;;;5035690;28;20547;-62
2022/05/05 11:28:22;;;;;;;29.37;26.83;;;18.60;99.90;;;;;;5035739;28;20478;-63
2022/05/05 11:30:49;;;;;;;30.67;27.40;;;18.70;99.90;;;;;;5035187;28;20567;-63
2022/05/05 11:33:19;;;;;;;27.97;25.57;;;18.50;99.90;;;;;;5035454;28;20447;-62
2022/05/05 11:35:58;;;;;;;30.70;28.00;;;18.40;99.90;;;;;;5035530;28;20452;-63
2022/05/05 11:38:28;;;;;;;28.87;26.13;;;18.30;99.90;;;;;;5035560;28;20445;-63
2022/05/05 11:41:02;;;;;;;29.73;26.80;;;18.30;99.90;;;;;;5035095;28;20992;-63
2022/05/05 11:46:16;;;;;;;31.60;28.60;;;18.30;99.90;;;;;;5035444;28;20916;-63
2022/05/05 11:48:43;;;;;;;32.37;29.47;;;18.10;99.90;;;;;;5035658;28;20444;-63
2022/05/05 11:51:10;;;;;;;32.63;29.93;;;18.10;99.90;;;;;;5034886;28;21035;-63
2022/05/05 11:53:37;;;;;;;31.40;28.50;;;18.00;99.90;;;;;;5035028;28;20455;-63
2022/05/05 11:56:11;;;;;;;32.20;29.33;;;18.00;99.90;;;;;;5034969;28;20463;-63
2022/05/05 12:01:45;;;;;;;32.53;29.33;;;18.00;99.90;;;;;;5034985;28;20834;-65
2022/05/05 12:04:14;;;;;;;34.00;30.67;;;17.90;99.90;;;;;;5035276;28;20510;-64
2022/05/05 12:06:41;;;;;;;32.57;29.40;;;17.80;99.90;;;;;;5035257;28;20451;-64
2022/05/05 12:09:08;;;;;;;33.13;30.00;;;17.60;99.90;;;;;;5034995;28;20975;-66
2022/05/05 12:11:38;;;;;;;32.60;29.80;;;17.60;99.90;;;;;;5035035;28;20480;-64
2022/05/05 12:14:06;;;;;;;34.73;31.50;;;17.50;99.90;;;;;;5036061;28;20436;-65
2022/05/05 12:16:35;;;;;;;37.40;33.53;;;17.30;99.90;;;;;;5034866;28;20506;-64
2022/05/05 12:19:09;;;;;;;37.33;33.50;;;17.30;99.90;;;;;;5035057;28;20459;-64
2022/05/05 12:21:36;;;;;;;36.27;32.77;;;17.30;99.90;;;;;;5034914;28;20561;-65
2022/05/05 12:24:05;;;;;;;37.40;33.73;;;17.30;99.90;;;;;;5034903;28;20848;-64
2022/05/05 12:26:34;;;;;;;36.37;32.73;;;17.30;99.90;;;;;;5034974;28;20452;-64
2022/05/05 12:29:03;;;;;;;37.30;33.60;;;17.30;99.90;;;;;;5035240;28;20506;-64
2022/05/05 12:31:30;;;;;;;37.30;33.80;;;17.30;99.90;;;;;;5034832;28;20494;-64
2022/05/05 12:33:57;;;;;;;37.93;34.00;;;17.30;99.90;;;;;;5034714;28;20452;-64
2022/05/05 12:36:28;;;;;;;38.67;34.90;;;17.30;99.90;;;;;;5034298;28;20471;-64
2022/05/05 12:39:10;;;;;;;37.50;33.70;;;17.30;99.90;;;;;;5034124;28;21164;-64
2022/05/05 12:41:37;;;;;;;37.20;33.30;;;17.40;99.90;;;;;;5034308;28;20471;-64
2022/05/05 12:44:09;;;;;;;37.23;33.60;;;17.40;99.90;;;;;;5034907;28;20857;-64
2022/05/05 12:46:35;;;;;;;36.93;33.30;;;17.40;99.90;;;;;;5034277;28;20436;-64
2022/05/05 12:49:02;;;;;;;36.97;33.20;;;17.50;99.90;;;;;;5034224;28;20860;-64
2022/05/05 12:51:31;;;;;;;37.07;33.30;;;17.60;99.90;;;;;;5033745;28;20472;-64
2022/05/05 12:59:46;;;;;;;39.30;35.07;;;17.60;99.90;;;;;;5034108;28;20415;-64
2022/05/05 13:02:12;;;;;;;39.73;35.73;;;17.60;99.90;;;;;;5033635;28;20487;-64
2022/05/05 13:04:40;;;;;;;38.87;34.97;;;17.60;99.90;;;;;;5036621;28;20476;-64
2022/05/05 13:07:07;;;;;;;39.17;35.00;;;17.70;99.90;;;;;;5056296;28;20522;-64
2022/05/05 13:09:34;;;;;;;39.00;35.00;;;17.70;99.90;;;;;;5049109;28;20452;-64
2022/05/05 13:12:00;;;;;;;36.90;33.27;;;17.80;99.90;;;;;;5034064;28;20476;-64
2022/05/05 13:14:28;;;;;;;38.30;34.27;;;17.80;99.90;;;;;;5033742;28;20455;-64
2022/05/05 13:16:55;;;;;;;40.83;36.83;;;17.90;99.90;;;;;;5033665;28;20456;-64
2022/05/05 13:19:23;;;;;;;40.20;35.80;;;17.70;99.90;;;;;;5033809;28;20550;-64
2022/05/05 13:21:49;;;;;;;36.43;32.63;;;17.70;99.90;;;;;;5033726;28;20498;-64
2022/05/05 13:24:17;;;;;;;36.83;33.13;;;17.60;99.90;;;;;;5033539;28;20594;-64
2022/05/05 13:26:47;;;;;;;35.67;32.20;;;17.70;99.90;;;;;;5033552;28;20443;-64
2022/05/05 13:29:14;;;;;;;32.37;28.90;;;17.70;99.90;;;;;;5033378;28;20452;-64
2022/05/05 13:31:42;;;;;;;30.40;27.43;;;17.70;99.90;;;;;;5033514;28;20864;-64
2022/05/05 13:34:09;;;;;;;32.63;29.40;;;17.90;99.90;;;;;;5033518;28;20447;-64
2022/05/05 13:36:36;;;;;;;34.83;31.47;;;17.90;99.90;;;;;;5033497;28;20455;-64
2022/05/05 13:39:04;;;;;;;35.50;32.17;;;17.90;99.90;;;;;;5033447;28;20452;-64
2022/05/05 13:41:31;;;;;;;34.23;30.93;;;17.90;99.90;;;;;;5033198;28;20568;-64
2022/05/05 13:43:57;;;;;;;34.93;31.50;;;17.80;99.90;;;;;;5033271;28;20490;-64
2022/05/05 13:46:24;;;;;;;35.77;32.40;;;17.80;99.90;;;;;;5033177;28;20456;-64
2022/05/05 13:48:52;;;;;;;36.90;33.10;;;17.90;99.90;;;;;;5033344;28;20452;-64
2022/05/05 13:51:19;;;;;;;34.43;30.77;;;17.80;99.90;;;;;;5033279;28;20479;-64
2022/05/05 13:53:46;;;;;;;35.43;32.00;;;17.80;99.90;;;;;;5033353;28;20456;-64
2022/05/05 13:56:13;;;;;;;40.10;35.80;;;17.90;99.90;;;;;;5032931;28;20949;-64
2022/05/05 13:58:40;;;;;;;35.87;32.47;;;17.90;99.90;;;;;;5033238;28;20467;-64
2022/05/05 14:01:06;;;;;;;34.67;31.10;;;18.10;99.90;;;;;;5032899;28;20494;-65
2022/05/05 14:03:33;;;;;;;35.87;32.53;;;18.10;99.90;;;;;;5033456;28;20960;-64
2022/05/05 14:06:01;;;;;;;35.20;31.80;;;18.20;99.90;;;;;;5032638;28;20949;-64
2022/05/05 14:13:58;;;;;;;35.17;31.47;;;18.50;99.90;;;;;;5037090;28;20543;-64
2022/05/05 14:16:26;;;;;;;33.63;30.23;;;18.60;99.90;;;;;;5037003;28;20477;-64
2022/05/05 14:18:54;;;;;;;35.83;32.43;;;18.80;99.90;;;;;;5036603;28;20487;-63
2022/05/05 14:21:22;;;;;;;34.50;31.40;;;18.80;99.90;;;;;;5036740;28;20530;-64
2022/05/05 14:23:49;;;;;;;33.67;30.73;;;18.80;99.90;;;;;;5036886;28;20476;-64
2022/05/05 14:26:16;;;;;;;33.37;29.97;;;18.80;99.90;;;;;;5036712;28;20594;-64
2022/05/05 14:28:43;;;;;;;34.10;30.60;;;18.80;99.90;;;;;;5036639;28;20487;-64
2022/05/05 14:31:09;;;;;;;34.53;31.13;;;19.00;99.90;;;;;;5036532;28;20478;-64
2022/05/05 14:33:36;;;;;;;32.50;29.57;;;19.10;99.90;;;;;;5036451;28;20455;-64
2022/05/05 14:36:03;;;;;;;33.20;30.00;;;19.20;99.90;;;;;;5036489;28;20455;-64
2022/05/05 14:38:31;;;;;;;36.10;32.40;;;19.40;99.90;;;;;;5036644;28;20456;-64
2022/05/05 14:40:58;;;;;;;34.17;30.90;;;19.40;99.90;;;;;;5036359;28;20815;-64
2022/05/05 14:43:25;;;;;;;37.20;33.20;;;19.30;99.90;;;;;;5036756;28;20458;-64
2022/05/05 14:45:51;;;;;;;36.90;33.30;;;19.10;99.90;;;;;;5036201;28;20525;-64
2022/05/05 14:48:18;;;;;;;34.50;31.40;;;19.00;99.90;;;;;;5036218;28;20479;-64
2022/05/05 14:50:45;;;;;;;37.80;33.83;;;18.90;99.90;;;;;;5036443;28;20486;-64
2022/05/05 14:53:11;;;;;;;37.77;34.20;;;18.80;99.90;;;;;;5035885;28;20487;-64
2022/05/05 14:55:40;;;;;;;36.37;33.07;;;18.70;99.90;;;;;;5035824;28;20953;-63
2022/05/05 14:58:07;;;;;;;40.03;36.13;;;18.50;99.90;;;;;;5036583;28;20500;-64
2022/05/05 15:00:34;;;;;;;37.03;33.37;;;18.40;99.90;;;;;;5036090;28;20459;-63
2022/05/05 15:03:00;;;;;;;36.57;33.03;;;18.30;99.90;;;;;;5036312;28;20791;-64
2022/05/05 15:05:28;;;;;;;35.90;32.50;;;18.20;99.90;;;;;;5036286;28;20522;-64
2022/05/05 15:07:55;;;;;;;35.57;32.07;;;18.20;99.90;;;;;;5035894;28;20961;-64
2022/05/05 15:10:22;;;;;;;39.10;35.20;;;18.40;99.90;;;;;;5036650;28;20857;-64
2022/05/05 15:12:52;;;;;;;37.33;33.80;;;18.20;99.90;;;;;;5037047;28;20459;-64
2022/05/05 15:15:18;;;;;;;38.80;35.10;;;18.20;99.90;;;;;;5036023;28;20940;-65
2022/05/05 15:17:45;;;;;;;40.37;36.53;;;18.20;99.90;;;;;;5035851;28;20447;-63
2022/05/05 15:20:13;;;;;;;39.57;35.70;;;18.10;99.90;;;;;;5034987;28;20543;-63
2022/05/05 15:22:40;;;;;;;38.83;35.13;;;18.20;99.90;;;;;;5035644;28;20526;-66
2022/05/05 15:25:10;;;;;;;38.80;35.20;;;18.10;99.90;;;;;;5035554;28;20555;-66
2022/05/05 15:27:38;;;;;;;39.37;35.47;;;18.10;99.90;;;;;;5036003;28;20448;-66
2022/05/05 15:30:07;;;;;;;39.37;35.53;;;18.20;99.90;;;;;;5035593;28;20456;-66
2022/05/05 15:32:34;;;;;;;37.33;33.83;;;18.20;99.90;;;;;;5035388;28;20475;-66
2022/05/05 15:35:03;;;;;;;41.27;37.43;;;18.30;99.90;;;;;;5035351;28;20448;-66
2022/05/05 15:37:30;;;;;;;37.83;34.17;;;18.50;99.90;;;;;;5035510;28;20451;-65
2022/05/05 15:39:57;;;;;;;36.30;32.87;;;18.60;99.90;;;;;;5035556;28;20495;-66
2022/05/05 15:42:24;;;;;;;39.20;35.50;;;18.70;99.90;;;;;;5035611;28;20569;-66
2022/05/05 15:44:53;;;;;;;40.57;36.87;;;18.80;99.90;;;;;;5035694;28;20472;-66
2022/05/05 15:47:22;;;;;;;36.43;32.97;;;18.70;99.90;;;;;;5035153;28;20936;-65
2022/05/05 15:49:49;;;;;;;37.37;34.03;;;18.70;99.90;;;;;;5035497;28;20455;-66
2022/05/05 15:52:16;;;;;;;37.60;34.30;;;18.80;99.90;;;;;;5035378;28;20480;-65
2022/05/05 15:54:43;;;;;;;36.40;32.70;;;18.80;99.90;;;;;;5035244;28;20451;-65
2022/05/05 15:57:10;;;;;;;36.87;33.37;;;18.80;99.90;;;;;;5035381;28;20460;-65
2022/05/05 15:59:39;;;;;;;35.63;32.23;;;18.90;99.90;;;;;;5035065;28;20909;-65
2022/05/05 16:02:07;;;;;;;36.57;32.93;;;19.00;99.90;;;;;;5035286;28;20488;-65
2022/05/05 16:04:36;;;;;;;37.43;33.83;;;19.10;99.90;;;;;;5035041;28;20507;-66
2022/05/05 16:07:04;;;;;;;36.73;33.53;;;19.10;99.90;;;;;;5034650;28;20455;-66
2022/05/05 16:09:31;;;;;;;37.07;33.33;;;19.20;99.90;;;;;;5034989;28;20448;-65
2022/05/05 16:11:58;;;;;;;35.70;32.10;;;19.20;99.90;;;;;;5034814;28;20550;-65
2022/05/05 16:14:28;;;;;;;35.30;32.00;;;19.10;99.90;;;;;;5034980;28;20455;-65
2022/05/05 16:16:55;;;;;;;34.60;31.40;;;19.10;99.90;;;;;;5034665;28;20458;-66
2022/05/05 16:19:22;;;;;;;35.33;32.13;;;19.20;99.90;;;;;;5035228;28;20459;-65
2022/05/05 16:21:51;;;;;;;35.47;32.27;;;19.10;99.90;;;;;;5036125;28;20476;-67
2022/05/05 16:24:17;;;;;;;35.17;31.77;;;19.10;99.90;;;;;;5035100;28;20451;-66
2022/05/05 16:32:13;;;;;;;34.37;31.30;;;18.80;99.90;;;;;;5033557;28;20530;-66
2022/05/05 16:34:40;;;;;;;34.00;30.50;;;18.80;99.90;;;;;;5044904;28;20455;-67
2022/05/05 16:37:08;;;;;;;35.67;32.50;;;18.70;99.90;;;;;;5046840;28;20451;-67
2022/05/05 16:39:36;;;;;;;37.27;33.60;;;18.50;99.90;;;;;;5037720;28;20498;-66
2022/05/05 16:42:03;;;;;;;33.87;30.30;;;18.30;99.90;;;;;;5034604;28;20483;-66
2022/05/05 16:44:30;;;;;;;33.07;29.87;;;18.00;99.90;;;;;;5034310;28;20452;-66
2022/05/05 16:46:57;;;;;;;34.20;30.80;;;17.90;99.90;;;;;;5034335;28;20554;-66
2022/05/05 16:49:23;;;;;;;32.97;29.80;;;17.80;99.90;;;;;;5034225;28;20463;-66
2022/05/05 16:51:52;;;;;;;28.47;25.50;;;17.70;99.90;;;;;;5034150;28;20468;-66
2022/05/05 16:54:21;;;;;;;29.87;26.83;;;17.60;99.90;;;;;;5034227;28;20555;-66
2022/05/05 16:56:48;;;;;;;28.10;25.47;;;17.60;99.90;;;;;;5034646;28;20459;-65
2022/05/05 16:59:15;;;;;;;28.97;25.97;;;17.60;99.90;;;;;;5034801;28;20463;-65
2022/05/05 17:01:41;;;;;;;27.00;24.03;;;17.60;99.90;;;;;;5034366;28;20538;-67
2022/05/05 17:04:09;;;;;;;28.10;25.20;;;17.50;99.90;;;;;;5034122;28;20452;-67
2022/05/05 17:06:36;;;;;;;25.63;23.20;;;17.40;99.90;;;;;;5034148;28;20534;-66
2022/05/05 17:09:04;;;;;;;26.60;24.00;;;17.30;99.90;;;;;;5034478;28;20436;-68
2022/05/05 17:11:32;;;;;;;24.70;21.80;;;17.20;99.90;;;;;;5033739;28;20988;-69
2022/05/05 17:13:59;;;;;;;27.57;22.93;;;17.10;99.90;;;;;;5033976;28;20455;-69
2022/05/05 17:16:26;;;;;;;25.57;23.17;;;17.00;99.90;;;;;;5033860;28;20447;-69
2022/05/05 17:18:53;;;;;;;26.73;23.83;;;16.90;99.90;;;;;;5033892;28;20452;-69
2022/05/05 17:21:19;;;;;;;26.43;24.03;;;16.80;99.90;;;;;;5033686;28;20829;-69
2022/05/05 17:23:46;;;;;;;26.03;23.63;;;16.70;99.90;;;;;;5033867;28;20455;-69
2022/05/05 17:26:13;;;;;;;27.70;24.90;;;16.60;99.90;;;;;;5033596;28;20500;-69
2022/05/05 17:28:41;;;;;;;24.93;22.33;;;16.60;99.90;;;;;;5033455;28;20523;-69